Latest Coastal Weather Observations for Sydney Airport

IDN60701

Issued at 10:02 am EST Wednesday 28 September 2016 (issued every 10 minutes, with the page automatically refreshed every 10 minutes)

About coastal observations | Map of coastal stations | Coastal observations for NSW | Marine services | Other Formats
Station Details ID: 066037 Name: SYDNEY AIRPORT AMO Lat: -33.95 Lon: 151.17 Height: 6.0 m
Data from the previous 72 hours. | See also: Recent months at Sydney Airport
Date/Time
EST
Temp
°C
Wind Pressure Rain since
9am
mm
Weather Cloud Vis
km
Sea
Height
m
Swell
Dir  Spd
kts
Gust
kts
hPa Trend Height
m
Period
s
Dir
28/09:30am 16.4 WNW 5 7 1014.5 - 0.0 - Mostly clear 10 - - - -
28/09:00am 17.1 WNW 6 9 1014.5 F 0.0 Fine Mostly clear 25 - - - -
28/08:30am 15.6 WNW 9 13 1014.5 - 0.0 - Mostly clear 10 - - - -
28/08:00am 14.3 W 10 13 1014.6 - 0.0 - Mostly clear 10 - - - -
28/07:30am 13.1 W 11 15 1014.6 - 0.0 - Mostly clear 10 - - - -
28/07:00am 12.6 WSW 14 18 1014.2 - 0.0 - Mostly clear 10 - - - -
28/06:30am 11.4 W 14 18 1013.9 - 0.0 - Mostly clear 10 - - - -
28/06:00am 10.5 W 12 16 1013.9 R 0.0 Fine Mostly clear 25 - - - -
28/05:30am 10.0 WNW 10 13 1013.5 - 0.0 - Mostly clear 10 - - - -
28/05:00am 10.2 W 11 15 1013.5 - 0.0 - Mostly clear 10 - - - -
28/04:30am 10.9 W 12 16 1013.5 - 0.0 - Mostly clear 10 - - - -
28/04:00am 10.9 W 15 18 1013.4 - 0.0 - Mostly clear 10 - - - -
28/03:30am 11.7 WSW 16 20 1013.1 - 0.0 - Mostly clear 10 - - - -
28/03:00am 12.1 WSW 16 20 1012.9 R 0.0 Fine Mostly clear 25 - - - -
28/02:30am 12.4 WSW 17 20 1012.8 - 0.0 - Mostly clear 10 - - - -
28/02:00am 12.5 WSW 15 20 1012.7 - 0.0 - Mostly clear 10 - - - -
28/01:30am 12.0 WSW 14 17 1012.9 - 0.0 - Mostly clear 10 - - - -
28/01:00am 11.9 WSW 12 14 1013.2 - 0.0 - Mostly clear 10 - - - -
28/12:30am 12.0 W 9 13 1013.2 - 0.0 - Mostly clear 10 - - - -
28/12:00am 12.0 W 8 10 1013.3 R 0.0 Fine Partly cloudy 25 - - - -
 
Date/Time
EST
Temp
°C
Wind Pressure Rain since
9am
mm
Weather Cloud Vis
km
Sea
Height
m
Swell
Dir  Spd
kts
Gust
kts
hPa Trend Height
m
Period
s
Dir
27/11:30pm 12.3 W 10 13 1013.4 - 0.0 - Mostly clear 10 - - - -
27/11:00pm 12.2 WSW 9 12 1013.2 - 0.0 - Mostly clear 10 - - - -
27/10:30pm 12.7 WSW 8 10 1013.1 - 0.0 - Mostly clear 10 - - - -
27/10:00pm 13.0 WSW 9 10 1012.9 - 0.0 - Mostly clear 10 - - - -
27/09:30pm 13.2 WSW 9 13 1012.9 - 0.0 - Mostly clear 10 - - - -
27/09:00pm 13.6 WSW 9 19 1012.7 R 0.0 Fine Mostly clear 25 - - - -
27/08:30pm 14.2 WSW 8 10 1012.7 - 0.0 - Mostly clear 10 - - - -
27/08:00pm 14.6 WSW 8 20 1012.5 - 0.0 - Mostly clear 10 - - - -
27/07:30pm 15.1 WSW 12 15 1012.0 - 0.0 - Mostly clear 10 - - - -
27/07:00pm 15.8 WSW 12 15 1011.5 - 0.0 - Mostly clear 10 - - - -
27/06:30pm 16.2 WSW 15 23 1011.1 - 0.0 - Mostly clear 10 - - - -
27/06:00pm 16.6 WSW 21 27 1010.6 R 0.0 Fine Mostly clear 25 - - - -
27/05:48pm 16.9 WSW 19 29 1010.4 - 0.0 - Mostly clear 10 - - - -
27/05:30pm 17.3 WSW 21 28 1010.0 - 0.0 - Mostly clear 10 - - - -
27/05:00pm 17.9 WSW 26 32 1009.4 - 0.0 - - 10 - - - -
27/04:30pm 18.8 W 23 31 1008.8 - 0.0 - - 10 - - - -
27/04:18pm 19.1 WSW 21 32 1008.6 - 0.0 - Partly cloudy 10 - - - -
27/04:00pm 19.2 WSW 22 29 1008.3 - 0.0 - Partly cloudy 10 - - - -
27/03:30pm 19.8 WSW 23 33 1007.6 - 0.0 - - 10 - - - -
27/03:00pm 19.6 SW 24 31 1007.0 R 0.0 Fine Mostly clear 30 - - - -
27/02:47pm 20.7 WSW 20 30 1006.9 - 0.0 - Partly cloudy 10 - - - -
27/02:30pm 20.2 WSW 22 29 1006.5 - 0.0 - Partly cloudy 10 - - - -
27/02:00pm 21.5 WSW 24 31 1006.3 - 0.0 - - 10 - - - -
27/01:47pm 21.3 WSW 25 35 1006.2 - 0.0 - Partly cloudy 10 - - - -
27/01:30pm 21.1 WSW 23 30 1006.1 - 0.0 - Partly cloudy 10 - - - -
27/01:08pm 21.8 WSW 18 29 1006.1 - 0.0 - Partly cloudy 10 - - - -
27/01:00pm 21.1 WSW 17 25 1005.9 - 0.0 - Partly cloudy 10 - - - -
27/12:30pm 22.0 W 17 24 1006.0 - 0.0 - Partly cloudy 10 - - - -
27/12:00pm 22.7 W 22 33 1006.3 F 0.0 Fine Mostly cloudy 25 - - - -
27/11:50am 22.0 WNW 17 31 1006.4 - 0.0 - Partly cloudy 10 - - - -
27/11:30am 21.0 WNW 14 20 1006.8 - 0.0 - Partly cloudy 10 - - - -
27/11:00am 21.7 NW 13 18 1007.3 - 0.0 - - 10 - - - -
27/10:30am 21.0 N 11 15 1007.6 - 0.0 - - 10 - - - -
27/10:00am 20.3 N 13 17 1007.8 - 0.0 - - 10 - - - -
27/09:30am 19.4 N 15 18 1008.6 - 0.0 - - 10 - - - -
27/09:00am 18.6 N 15 18 1009.3 F 0.0 Fine Mostly clear 25 - - - -
27/08:30am 17.5 N 13 17 1010.0 - 0.0 - - 10 - - - -
27/08:00am 15.6 N 10 14 1010.1 - 0.0 - Partly cloudy 10 - - - -
27/07:30am 14.2 NNW 9 13 1010.7 - 0.0 - Partly cloudy 10 - - - -
27/07:00am 13.6 NNW 7 9 1011.0 - 0.0 - - 10 - - - -
27/06:30am 12.9 N 7 8 1011.0 - 0.0 - Partly cloudy 10 - - - -
27/06:00am 12.0 N 5 7 1011.1 F 0.0 Fine Mostly cloudy 25 - - - -
27/05:30am 11.7 NNW 9 11 1011.2 - 0.0 - Mostly clear 10 - - - -
27/05:00am 11.1 NW 9 11 1011.3 - 0.0 - Mostly clear 10 - - - -
27/04:30am 10.9 NW 11 13 1011.4 - 0.0 - - 10 - - - -
27/04:00am 11.1 N 7 9 1011.2 - 0.0 - - 10 - - - -
27/03:30am 11.0 NW 9 11 1011.5 - 0.0 - - 10 - - - -
27/03:00am 11.2 NW 9 10 1011.5 F 0.0 Fine Mostly clear 25 - - - -
27/02:30am 11.5 WNW 10 13 1011.8 - 0.0 - - 10 - - - -
27/02:00am 11.6 WNW 11 14 1011.9 - 0.0 - - 10 - - - -
27/01:30am 12.1 W 14 16 1012.0 - 0.0 - - 10 - - - -
27/01:00am 12.7 W 15 18 1012.0 - 0.0 - - 10 - - - -
27/12:30am 13.1 W 14 22 1012.2 - 0.0 - - 10 - - - -
27/12:00am 13.3 WNW 11 14 1012.6 S 0.0 Fine Mostly clear 25 - - - -
 
Date/Time
EST
Temp
°C
Wind Pressure Rain since
9am
mm
Weather Cloud Vis
km
Sea
Height
m
Swell
Dir  Spd
kts
Gust
kts
hPa Trend Height
m
Period
s
Dir
26/11:30pm 13.6 WNW 10 14 1012.6 - 0.0 - - 10 - - - -
26/11:00pm 14.4 WNW 9 11 1012.6 - 0.0 - - 10 - - - -
26/10:30pm 14.5 WNW 10 13 1012.8 - 0.0 - - 10 - - - -
26/10:00pm 14.8 WNW 10 14 1012.8 - 0.0 - - 10 - - - -
26/09:30pm 15.1 WNW 10 15 1012.8 - 0.0 - - 10 - - - -
26/09:00pm 15.0 WNW 8 12 1012.8 R 0.0 Fine Mostly clear 25 - - - -
26/08:30pm 15.0 W 7 9 1012.7 - 0.0 - Mostly clear 10 - - - -
26/08:00pm 15.3 W 8 10 1012.4 - 0.0 - Mostly clear 10 - - - -
26/07:30pm 15.5 W 6 11 1012.2 - 0.0 - Mostly clear 10 - - - -
26/07:00pm 15.7 SSW 6 11 1012.0 - 0.0 - Mostly clear 10 - - - -
26/06:30pm 16.1 SSW 7 11 1011.6 - 0.0 - Mostly clear 10 - - - -
26/06:00pm 16.3 SSW 9 10 1011.0 R 0.0 Distant precip. Partly cloudy 25 - - - -
26/05:30pm 16.7 SSE 8 10 1010.6 - 0.0 - Mostly clear 10 - - - -
26/05:00pm 16.6 S 11 15 1010.2 - 0.0 - Mostly clear 10 - - - -
26/04:30pm 16.9 S 11 15 1009.7 - 0.0 - Mostly clear 10 - - - -
26/04:00pm 17.6 SSE 9 12 1009.2 - 0.0 - Mostly clear 10 - - - -
26/03:30pm 18.2 SE 9 12 1009.1 - 0.0 - - 10 - - - -
26/03:00pm 18.4 SE 11 15 1009.0 F 0.0 Fine Mostly clear 30 - - - -
26/02:30pm 18.3 SE 11 15 1009.2 - 0.0 - - 10 - - - -
26/02:00pm 18.1 ESE 11 13 1009.5 - 0.0 - - 10 - - - -
26/01:30pm 18.1 SE 11 14 1009.8 - 0.0 - - 10 - - - -
26/01:00pm 18.7 SE 9 12 1010.1 - 0.0 - - 10 - - - -
26/12:30pm 17.9 SE 9 12 1010.5 - 0.0 - - 10 - - - -
26/12:00pm 18.5 SE 8 10 1010.9 F 0.0 Fine Mostly clear 30 - - - -
26/11:30am 17.5 W 8 19 1011.3 - 0.0 - - 10 - - - -
26/11:00am 18.4 W 9 14 1011.7 - 0.0 - - 10 - - - -
26/10:30am 17.4 WSW 9 20 1012.2 - 0.0 - - 10 - - - -
26/10:00am 17.0 W 12 16 1012.6 - 0.0 - - 10 - - - -
26/09:30am 16.0 WSW 13 16 1012.8 - 0.0 - - 10 - - - -
26/09:00am 15.3 WSW 13 16 1013.1 F 5.8 Fine Mostly clear 25 - - - -
26/08:30am 14.8 W 13 17 1013.2 - 5.8 - Mostly clear 10 - - - -
26/08:00am 14.7 W 15 20 1013.3 - 5.8 - Mostly clear 10 - - - -
26/07:30am 14.0 SW 17 22 1013.3 - 5.8 - Mostly clear 10 - - - -
26/07:00am 13.2 WSW 17 20 1013.2 - 5.8 - Mostly clear 10 - - - -
26/06:30am 12.6 WSW 14 19 1013.2 - 5.8 - Mostly clear 10 - - - -
26/06:00am 12.2 WSW 15 19 1012.9 R 5.8 Fine Mostly clear 30 - - - -
26/05:30am 12.5 SW 14 17 1012.6 - 5.8 - Mostly clear 10 - - - -
26/05:00am 12.7 SSW 13 16 1012.4 - 5.8 - Mostly clear 10 - - - -
26/04:30am 12.9 SW 13 16 1012.2 - 5.8 - Mostly clear 10 - - - -
26/04:00am 13.1 SW 15 18 1012.1 - 5.8 - Mostly clear 10 - - - -
26/03:30am 13.2 SSW 13 16 1011.9 - 5.8 - Mostly clear 10 - - - -
26/03:00am 14.2 SSW 14 17 1011.5 R 5.8 Fine Mostly clear 30 - - - -
26/02:30am 14.3 SSW 13 17 1011.5 - 5.8 - Mostly clear 10 - - - -
26/02:00am 14.0 SSW 12 16 1011.6 - 5.8 - Mostly clear 10 - - - -
26/01:30am 13.9 SSW 10 13 1011.5 - 5.8 - Mostly clear 10 - - - -
26/01:00am 14.2 SSW 13 15 1011.7 - 5.8 - Mostly clear 10 - - - -
26/12:30am 14.2 SSW 12 16 1012.1 - 5.8 - Mostly clear 10 - - - -
26/12:00am 13.9 WSW 7 9 1011.8 R 5.8 Distant precip. Partly cloudy 25 - - - -
 
Date/Time
EST
Temp
°C
Wind Pressure Rain since
9am
mm
Weather Cloud Vis
km
Sea
Height
m
Swell
Dir  Spd
kts
Gust
kts
hPa Trend Height
m
Period
s
Dir
25/11:30pm 14.3 WSW 8 10 1011.7 - 5.8 - Mostly clear 10 - - - -
25/11:00pm 14.6 W 8 10 1011.5 - 5.8 - Mostly clear 10 - - - -
25/10:30pm 14.8 SW 9 12 1011.2 - 5.8 - Mostly clear 10 - - - -
25/10:00pm 15.1 SW 8 11 1011.2 - 5.8 - Mostly clear 10 - - - -
25/09:30pm 15.0 SW 8 9 1010.9 - 5.8 - Mostly clear 10 - - - -
25/09:00pm 15.2 SW 9 13 1010.8 R 5.8 Distant precip. Mostly cloudy 25 - - - -
25/08:30pm 15.5 SW 11 14 1010.6 - 5.8 - Mostly clear 10 - - - -
25/08:00pm 15.9 SW 9 12 1010.2 - 5.8 - Mostly clear 10 - - - -
25/07:30pm 15.9 SSW 11 15 1009.8 - 5.8 - Mostly clear 10 - - - -
25/07:00pm 16.0 SSW 11 19 1009.5 - 5.8 - Mostly clear 10 - - - -
25/06:30pm 16.3 SSW 13 19 1009.1 - 5.8 - Mostly clear 10 - - - -
25/06:00pm 16.8 SSW 16 22 1008.5 R 5.8 Distant precip. Mostly cloudy 25 - - - -
25/05:30pm 17.0 S 15 18 1008.2 - 5.8 - Mostly clear 10 - - - -
25/05:00pm 17.4 SSW 12 15 1007.8 - 5.8 - Mostly clear 10 - - - -
25/04:30pm 17.2 SSW 10 12 1007.3 - 5.8 Showers Mostly clear 10 - - - -
25/04:00pm 17.3 SSW 12 16 1006.7 - 5.8 - Mostly clear 10 - - - -
25/03:30pm 16.9 S 8 13 1006.3 - 5.8 - Mostly clear 10 - - - -
25/03:00pm 16.6 SSW 15 19 1006.2 R 5.8 Showers Mostly cloudy 25 - - - -
25/02:30pm 16.9 S 17 22 1005.9 - 5.0 Showers Mostly clear 10 - - - -
25/02:00pm 17.7 ESE 6 8 1005.3 - 3.8 - Mostly clear 10 - - - -
25/01:30pm 16.6 SE 11 14 1005.0 - 3.8 Showers Mostly clear 8 - - - -
25/01:28pm 16.2 SE 11 16 1005.1 - 3.8 Showers Mostly clear 7 - - - -
25/01:18pm 15.9 SSE 15 19 1005.4 - 1.6 Showers Mostly clear 5 - - - -
25/01:09pm 17.9 SSE 12 20 1004.8 - 0.0 Showers Partly cloudy 6 - - - -
25/01:00pm 19.8 ESE 6 7 1004.6 - 0.0 - Mostly clear 10 - - - -
25/12:52pm 20.6 SE 5 8 1004.7 - 0.0 Thunder Mostly clear 10 - - - -
25/12:30pm 20.2 SSW 7 9 1005.0 - 0.0 - Mostly clear 10 - - - -
25/12:00pm 20.0 WSW 9 12 1005.1 R 0.0 Fine Mostly cloudy 40 - - - -
25/11:30am 19.1 WSW 12 16 1005.2 - 0.0 - Mostly clear 10 - - - -
25/11:00am 19.2 WNW 10 15 1005.4 - 0.0 - Mostly clear 10 - - - -
25/10:30am 18.1 NW 8 11 1005.7 - 0.0 - Mostly clear 10 - - - -

Other Formats:

Comma delimited format used in spreadsheet applications
http://www.bom.gov.au/fwo/IDN60701/IDN60701.94767.axf

JavaScript Object Notation format (JSON) in row-major order
http://www.bom.gov.au/fwo/IDN60701/IDN60701.94767.json